createdAt,value
2023-01-29T00:00:18.379Z,54.30
2023-01-29T00:02:47.139Z,59.58
2023-01-29T00:05:26.921Z,64.35
2023-01-29T00:07:56.733Z,52.78
2023-01-29T00:10:27.321Z,55.47
2023-01-29T00:12:55.742Z,54.65
2023-01-29T00:15:23.975Z,53.05
2023-01-29T00:17:52.263Z,48.10
2023-01-29T00:20:20.923Z,51.53
2023-01-29T00:22:49.500Z,55.80
2023-01-29T00:25:17.800Z,50.33
2023-01-29T00:27:47.395Z,48.47
2023-01-29T00:30:19.401Z,45.70
2023-01-29T00:32:48.074Z,42.53
2023-01-29T00:35:16.452Z,42.85
2023-01-29T00:37:44.742Z,46.33
2023-01-29T00:40:13.698Z,47.53
2023-01-29T00:42:59.145Z,44.90
2023-01-29T00:45:28.700Z,45.85
2023-01-29T00:47:56.914Z,43.13
2023-01-29T00:50:25.112Z,45.22
2023-01-29T00:52:54.749Z,42.05
2023-01-29T00:55:23.134Z,42.17
2023-01-29T00:57:52.455Z,43.75
2023-01-29T01:00:21.560Z,45.78
2023-01-29T01:03:05.117Z,45.78
2023-01-29T01:05:33.624Z,46.45
2023-01-29T01:08:02.245Z,41.83
2023-01-29T01:10:31.898Z,48.55
2023-01-29T01:13:02.930Z,49.15
2023-01-29T01:15:33.396Z,51.58
2023-01-29T01:18:04.302Z,52.47
2023-01-29T01:20:35.308Z,45.87
2023-01-29T01:23:05.210Z,46.10
2023-01-29T01:25:33.777Z,48.85
2023-01-29T01:28:02.140Z,44.15
2023-01-29T01:30:30.493Z,39.17
2023-01-29T01:32:58.951Z,38.25
2023-01-29T01:35:28.599Z,42.28
2023-01-29T01:37:56.898Z,36.92
2023-01-29T01:40:26.346Z,47.65
2023-01-29T01:42:56.307Z,41.67
2023-01-29T01:45:27.963Z,45.50
2023-01-29T01:48:00.156Z,50.75
2023-01-29T01:50:33.318Z,49.88
2023-01-29T01:53:05.832Z,44.40
2023-01-29T01:55:35.666Z,51.35
2023-01-29T01:58:09.004Z,43.22
2023-01-29T02:00:37.734Z,46.50
2023-01-29T02:03:24.601Z,49.72
2023-01-29T02:06:14.035Z,43.00
2023-01-29T02:09:06.057Z,47.47
2023-01-29T02:11:37.594Z,46.05
2023-01-29T02:14:06.055Z,47.40
2023-01-29T02:16:36.603Z,51.00
2023-01-29T02:19:09.509Z,47.58
2023-01-29T02:22:03.851Z,45.58
2023-01-29T02:24:50.284Z,44.60
2023-01-29T02:27:22.661Z,46.67
2023-01-29T02:30:04.011Z,43.10
2023-01-29T02:32:37.120Z,44.55
2023-01-29T02:35:28.721Z,48.55
2023-01-29T02:38:09.866Z,40.80
2023-01-29T02:40:44.027Z,47.38
2023-01-29T02:43:24.447Z,41.60
2023-01-29T02:46:01.439Z,47.72
2023-01-29T02:48:39.208Z,40.13
2023-01-29T02:51:12.340Z,40.53
2023-01-29T02:53:50.452Z,40.13
2023-01-29T02:56:23.250Z,42.83
2023-01-29T02:58:55.935Z,39.70
2023-01-29T03:01:31.256Z,39.80
2023-01-29T03:04:03.652Z,35.95
2023-01-29T03:06:36.530Z,41.53
2023-01-29T03:09:10.753Z,41.60
2023-01-29T03:11:43.081Z,41.35
2023-01-29T03:14:16.900Z,44.28
2023-01-29T03:16:51.252Z,44.38
2023-01-29T03:19:24.289Z,40.30
2023-01-29T03:21:59.384Z,39.35
2023-01-29T03:24:54.119Z,38.80
2023-01-29T03:27:47.903Z,38.70
2023-01-29T03:30:37.009Z,37.15
2023-01-29T03:33:22.006Z,40.45
2023-01-29T03:35:55.072Z,41.33
2023-01-29T03:38:29.723Z,42.47
2023-01-29T03:41:01.556Z,42.70
2023-01-29T03:43:35.086Z,44.17
2023-01-29T03:46:10.240Z,43.80
2023-01-29T03:48:42.886Z,43.95
2023-01-29T03:51:22.176Z,39.30
2023-01-29T03:53:55.056Z,45.75
2023-01-29T03:56:45.998Z,40.50
2023-01-29T03:59:24.281Z,41.38
2023-01-29T04:02:27.889Z,38.83
2023-01-29T04:05:03.257Z,43.25
2023-01-29T04:07:33.413Z,44.20
2023-01-29T04:10:10.961Z,43.85
2023-01-29T04:12:42.995Z,42.22
2023-01-29T04:15:15.732Z,40.38
2023-01-29T04:17:49.139Z,44.15
2023-01-29T04:20:26.521Z,45.17
2023-01-29T04:22:55.210Z,40.88
2023-01-29T04:25:28.941Z,41.03
2023-01-29T04:28:06.616Z,46.23
2023-01-29T04:30:45.721Z,41.30
2023-01-29T04:33:23.359Z,42.80
2023-01-29T04:36:07.224Z,47.70
2023-01-29T04:38:49.165Z,45.40
2023-01-29T04:41:24.307Z,42.20
2023-01-29T04:44:03.554Z,43.83
2023-01-29T04:46:37.168Z,45.60
2023-01-29T04:49:17.890Z,42.88
2023-01-29T04:51:53.307Z,44.47
2023-01-29T04:54:32.435Z,42.83
2023-01-29T04:57:08.391Z,51.33
2023-01-29T04:59:40.193Z,43.67
2023-01-29T05:02:10.531Z,45.33
2023-01-29T05:04:40.933Z,43.78
2023-01-29T05:07:14.332Z,44.75
2023-01-29T05:09:46.197Z,44.65
2023-01-29T05:12:16.989Z,44.30
2023-01-29T05:14:48.653Z,40.80
2023-01-29T05:17:18.858Z,46.75
2023-01-29T05:19:47.910Z,41.95
2023-01-29T05:22:22.742Z,48.88
2023-01-29T05:24:51.370Z,41.83
2023-01-29T05:27:40.941Z,43.78
2023-01-29T05:30:10.558Z,44.90
2023-01-29T05:32:39.771Z,46.80
2023-01-29T05:35:08.946Z,46.85
2023-01-29T05:37:39.120Z,46.10
2023-01-29T05:40:09.738Z,43.95
2023-01-29T05:42:38.082Z,46.65
2023-01-29T05:45:07.363Z,49.23
2023-01-29T05:47:35.661Z,45.15
2023-01-29T05:50:03.842Z,46.83
2023-01-29T05:52:32.024Z,44.25
2023-01-29T05:55:01.606Z,41.80
2023-01-29T05:57:29.808Z,47.63
2023-01-29T05:59:58.059Z,41.10
2023-01-29T06:02:26.318Z,42.13
2023-01-29T06:04:54.471Z,45.88
2023-01-29T06:07:22.651Z,45.22
2023-01-29T06:09:50.835Z,44.67
2023-01-29T06:12:20.528Z,41.83
2023-01-29T06:14:48.774Z,40.05
2023-01-29T06:17:17.061Z,43.03
2023-01-29T06:19:45.396Z,43.50
2023-01-29T06:22:13.662Z,40.40
2023-01-29T06:24:42.008Z,43.03
2023-01-29T06:27:10.385Z,38.75
2023-01-29T06:29:39.975Z,40.80
2023-01-29T06:32:08.344Z,39.58
2023-01-29T06:34:36.764Z,37.17
2023-01-29T06:37:05.099Z,44.43
2023-01-29T06:39:33.285Z,40.90
2023-01-29T06:42:02.987Z,43.95
2023-01-29T06:44:31.192Z,35.42
2023-01-29T06:47:00.840Z,35.67
2023-01-29T06:49:29.047Z,38.67
2023-01-29T06:51:57.235Z,35.92
2023-01-29T06:54:25.517Z,34.90
2023-01-29T06:56:53.794Z,38.63
2023-01-29T06:59:22.061Z,41.08
2023-01-29T07:01:50.426Z,39.10
2023-01-29T07:04:20.097Z,39.50
2023-01-29T07:06:49.025Z,35.25
2023-01-29T07:09:17.548Z,35.50
2023-01-29T07:11:45.726Z,37.70
2023-01-29T07:14:13.941Z,40.90
2023-01-29T07:16:42.170Z,38.67
2023-01-29T07:19:10.632Z,40.33
2023-01-29T07:21:40.207Z,44.03
2023-01-29T07:24:09.055Z,36.97
2023-01-29T07:26:37.172Z,34.20
2023-01-29T07:29:06.291Z,36.63
2023-01-29T07:31:34.640Z,39.28
2023-01-29T07:34:02.920Z,38.90
2023-01-29T07:36:31.797Z,35.22
2023-01-29T07:39:01.435Z,36.78
2023-01-29T07:41:29.736Z,36.83
2023-01-29T07:44:00.978Z,35.42
2023-01-29T07:46:29.285Z,37.17
2023-01-29T07:48:59.013Z,35.55
2023-01-29T07:51:29.116Z,37.67
2023-01-29T07:53:57.378Z,35.57
2023-01-29T07:56:27.200Z,37.10
2023-01-29T07:58:55.457Z,33.75
2023-01-29T08:01:23.831Z,37.93
2023-01-29T08:03:52.094Z,35.63
2023-01-29T08:06:20.376Z,36.83
2023-01-29T08:08:48.835Z,35.22
2023-01-29T08:11:17.039Z,34.25
2023-01-29T08:13:46.795Z,36.90
2023-01-29T08:16:15.325Z,34.08
2023-01-29T08:18:47.668Z,38.73
2023-01-29T08:21:16.397Z,40.40
2023-01-29T08:23:44.641Z,32.95
2023-01-29T08:26:12.951Z,39.92
2023-01-29T08:28:41.176Z,36.45
2023-01-29T08:31:16.605Z,36.85
2023-01-29T08:33:44.835Z,35.40
2023-01-29T08:36:13.013Z,34.38
2023-01-29T08:38:41.755Z,39.08
2023-01-29T08:41:10.200Z,39.90
2023-01-29T08:43:38.895Z,34.80
2023-01-29T08:46:08.037Z,36.03
2023-01-29T08:48:37.703Z,34.72
2023-01-29T08:51:06.538Z,37.42
2023-01-29T08:53:34.853Z,40.33
2023-01-29T08:56:03.366Z,34.83
2023-01-29T08:58:31.671Z,34.20
2023-01-29T09:01:07.392Z,33.40
2023-01-29T09:03:37.288Z,34.50
2023-01-29T09:06:05.888Z,39.57
2023-01-29T09:08:34.325Z,38.40
2023-01-29T09:11:02.583Z,35.83
2023-01-29T09:13:31.203Z,35.85
2023-01-29T09:16:01.467Z,35.35
2023-01-29T09:18:30.607Z,35.85
2023-01-29T09:21:00.228Z,33.58
2023-01-29T09:23:28.437Z,37.42
2023-01-29T09:25:57.036Z,34.08
2023-01-29T09:28:25.635Z,34.72
2023-01-29T09:30:54.215Z,34.38
2023-01-29T09:33:22.496Z,34.93
2023-01-29T09:35:50.769Z,30.97
2023-01-29T09:38:20.466Z,36.97
2023-01-29T09:40:56.679Z,36.08
2023-01-29T09:43:31.696Z,36.20
2023-01-29T09:46:03.806Z,36.92
2023-01-29T09:48:34.760Z,30.83
2023-01-29T09:51:14.327Z,37.07
2023-01-29T09:53:49.546Z,33.78
2023-01-29T09:56:21.551Z,37.10
2023-01-29T09:58:49.903Z,36.45
2023-01-29T10:01:25.169Z,35.95
2023-01-29T10:04:39.689Z,32.22
2023-01-29T10:07:24.009Z,38.03
2023-01-29T10:10:18.393Z,34.95
2023-01-29T10:13:02.566Z,37.17
2023-01-29T10:15:45.979Z,35.57
2023-01-29T10:18:36.949Z,35.90
2023-01-29T10:21:17.613Z,33.33
2023-01-29T10:23:52.017Z,34.75
2023-01-29T10:26:24.708Z,33.50
2023-01-29T10:28:55.664Z,33.23
2023-01-29T10:31:32.758Z,35.63
2023-01-29T10:34:04.718Z,31.02
2023-01-29T10:36:39.608Z,36.28
2023-01-29T10:39:16.964Z,35.72
2023-01-29T10:41:58.984Z,33.70
2023-01-29T10:44:39.949Z,36.63
2023-01-29T10:47:48.620Z,31.98
2023-01-29T10:50:26.674Z,33.50
2023-01-29T10:53:16.694Z,36.97
2023-01-29T10:55:54.348Z,30.15
2023-01-29T10:58:32.835Z,36.00
2023-01-29T11:01:01.465Z,33.47
2023-01-29T11:03:31.599Z,34.80
2023-01-29T11:06:10.171Z,33.40
2023-01-29T11:08:42.956Z,33.17
2023-01-29T11:11:15.196Z,31.85
2023-01-29T11:13:50.051Z,34.25
2023-01-29T11:16:18.273Z,33.42
2023-01-29T11:18:58.301Z,34.53
2023-01-29T11:21:27.554Z,31.20
2023-01-29T11:24:12.740Z,36.90
2023-01-29T11:26:43.273Z,32.13
2023-01-29T11:29:47.160Z,32.03
2023-01-29T11:32:25.970Z,36.57
2023-01-29T11:35:02.329Z,33.70
2023-01-29T11:37:38.309Z,30.90
2023-01-29T11:40:37.869Z,32.03
2023-01-29T11:43:18.524Z,34.53
2023-01-29T11:45:49.545Z,30.92
2023-01-29T11:48:19.683Z,33.78
2023-01-29T11:50:54.250Z,34.28
2023-01-29T11:53:39.826Z,34.58
2023-01-29T11:56:20.105Z,33.50
2023-01-29T11:58:50.203Z,31.30
2023-01-29T12:01:31.197Z,29.67
2023-01-29T12:04:00.342Z,32.65
2023-01-29T12:06:36.458Z,31.00
2023-01-29T12:09:11.517Z,34.75
2023-01-29T12:11:39.889Z,36.00
2023-01-29T12:14:28.011Z,33.20
2023-01-29T12:17:00.711Z,28.30
2023-01-29T12:19:35.796Z,32.10
2023-01-29T12:22:08.008Z,35.47
2023-01-29T12:24:42.289Z,32.30
2023-01-29T12:27:18.465Z,32.10
2023-01-29T12:29:53.576Z,30.93
2023-01-29T12:32:33.525Z,35.27
2023-01-29T12:35:07.343Z,30.25
2023-01-29T12:37:41.748Z,32.53
2023-01-29T12:40:15.627Z,32.30
2023-01-29T12:42:48.541Z,32.25
2023-01-29T12:45:20.165Z,32.13
2023-01-29T12:47:53.052Z,31.63
2023-01-29T12:50:23.633Z,33.60
2023-01-29T12:52:54.706Z,31.92
2023-01-29T12:55:25.960Z,29.70
2023-01-29T12:57:58.157Z,31.58
2023-01-29T13:00:29.331Z,31.35
2023-01-29T13:03:05.392Z,33.30
2023-01-29T13:05:41.808Z,30.48
2023-01-29T13:08:15.759Z,32.38
2023-01-29T13:10:47.212Z,35.72
2023-01-29T13:13:20.586Z,31.00
2023-01-29T13:15:49.944Z,27.80
2023-01-29T13:18:37.657Z,32.95
2023-01-29T13:21:06.801Z,27.42
2023-01-29T13:23:39.210Z,28.77
2023-01-29T13:26:07.654Z,31.20
2023-01-29T13:28:37.637Z,29.50
2023-01-29T13:31:24.962Z,27.63
2023-01-29T13:33:57.313Z,30.83
2023-01-29T13:36:29.237Z,26.15
2023-01-29T13:39:02.544Z,25.92
2023-01-29T13:41:40.201Z,25.58
2023-01-29T13:44:21.078Z,25.42
2023-01-29T13:46:57.323Z,23.65
2023-01-29T13:49:37.224Z,27.53
2023-01-29T13:52:25.293Z,25.25
2023-01-29T13:54:58.483Z,24.88
2023-01-29T13:57:55.691Z,24.17
2023-01-29T14:01:01.541Z,23.90
2023-01-29T14:04:04.520Z,27.58
2023-01-29T14:06:51.171Z,29.13
2023-01-29T14:09:51.065Z,23.60
2023-01-29T14:12:42.002Z,27.60
2023-01-29T14:15:35.134Z,23.63
2023-01-29T14:18:19.589Z,25.42
2023-01-29T14:21:03.186Z,25.02
2023-01-29T14:23:40.338Z,21.45
2023-01-29T14:26:29.284Z,26.55
2023-01-29T14:29:02.776Z,21.20
2023-01-29T14:31:41.834Z,26.63
2023-01-29T14:34:20.201Z,26.45
2023-01-29T14:36:55.346Z,24.60
2023-01-29T14:39:31.988Z,24.58
2023-01-29T14:42:03.449Z,26.70
2023-01-29T14:44:59.892Z,22.77
2023-01-29T14:48:16.111Z,26.65
2023-01-29T14:50:51.428Z,23.92
2023-01-29T14:53:25.045Z,23.05
2023-01-29T14:56:00.560Z,24.17
2023-01-29T14:58:40.194Z,24.67
2023-01-29T15:01:22.204Z,21.95
2023-01-29T15:03:52.633Z,22.67
2023-01-29T15:06:28.317Z,22.87
2023-01-29T15:09:03.533Z,23.30
2023-01-29T15:11:38.437Z,22.17
2023-01-29T15:14:24.898Z,25.13
2023-01-29T15:17:09.030Z,22.13
2023-01-29T15:19:40.318Z,22.17
2023-01-29T15:22:12.872Z,23.25
2023-01-29T15:24:42.841Z,21.25
2023-01-29T15:27:21.791Z,27.08
2023-01-29T15:30:01.134Z,27.65
2023-01-29T15:32:34.228Z,25.48
2023-01-29T15:35:06.971Z,22.80
2023-01-29T15:37:37.101Z,31.23
2023-01-29T15:40:13.262Z,27.05
2023-01-29T15:42:48.681Z,23.38
2023-01-29T15:45:30.026Z,22.73
2023-01-29T15:48:04.219Z,22.90
2023-01-29T15:50:37.235Z,22.80
2023-01-29T15:53:11.023Z,21.10
2023-01-29T15:55:40.468Z,30.33
2023-01-29T15:58:16.724Z,39.50
2023-01-29T16:00:51.032Z,26.73
2023-01-29T16:03:23.184Z,28.60
2023-01-29T16:05:51.885Z,27.17
2023-01-29T16:08:21.966Z,25.35
2023-01-29T16:10:54.194Z,36.15
2023-01-29T16:13:25.646Z,30.88
2023-01-29T16:15:59.533Z,26.38
2023-01-29T16:18:33.487Z,26.40
2023-01-29T16:21:06.589Z,22.95
2023-01-29T16:23:42.057Z,21.58
2023-01-29T16:26:16.420Z,22.42
2023-01-29T16:28:47.401Z,23.23
2023-01-29T16:31:22.831Z,27.35
2023-01-29T16:33:51.211Z,23.20
2023-01-29T16:36:21.598Z,21.00
2023-01-29T16:38:54.132Z,23.35
2023-01-29T16:41:32.102Z,25.45
2023-01-29T16:44:03.760Z,23.60
2023-01-29T16:46:37.376Z,21.42
2023-01-29T16:49:44.736Z,25.15
2023-01-29T16:52:19.611Z,24.35
2023-01-29T16:54:47.914Z,23.03
2023-01-29T16:57:19.457Z,25.70
2023-01-29T16:59:49.866Z,22.67
2023-01-29T17:02:24.859Z,22.98
2023-01-29T17:04:55.035Z,24.80
2023-01-29T17:07:23.498Z,25.25
2023-01-29T17:09:54.887Z,20.95
2023-01-29T17:12:26.321Z,26.80
2023-01-29T17:14:57.805Z,23.85
2023-01-29T17:17:31.451Z,26.27
2023-01-29T17:20:03.735Z,26.30
2023-01-29T17:22:31.991Z,25.63
2023-01-29T17:25:00.225Z,25.25
2023-01-29T17:27:29.148Z,24.10
2023-01-29T17:29:59.086Z,25.77
2023-01-29T17:32:44.601Z,26.15
2023-01-29T17:35:14.944Z,26.90
2023-01-29T17:37:44.339Z,22.80
2023-01-29T17:40:22.785Z,26.77
2023-01-29T17:42:50.960Z,26.40
2023-01-29T17:45:20.566Z,23.33
2023-01-29T17:47:48.814Z,22.05
2023-01-29T17:50:23.502Z,26.17
2023-01-29T17:52:52.695Z,27.95
2023-01-29T17:55:21.545Z,22.77
2023-01-29T17:57:49.871Z,23.13
2023-01-29T18:00:26.892Z,24.48
2023-01-29T18:02:55.940Z,22.35
2023-01-29T18:05:24.120Z,24.08
2023-01-29T18:07:54.751Z,24.95
2023-01-29T18:10:23.512Z,23.77
2023-01-29T18:12:51.853Z,23.27
2023-01-29T18:15:21.619Z,26.15
2023-01-29T18:17:52.913Z,25.42
2023-01-29T18:20:23.647Z,23.70
2023-01-29T18:22:52.281Z,24.38
2023-01-29T18:25:21.243Z,24.73
2023-01-29T18:27:49.947Z,25.23
2023-01-29T18:30:18.708Z,30.30
2023-01-29T18:32:48.554Z,28.30
2023-01-29T18:35:17.495Z,28.63
2023-01-29T18:37:46.232Z,25.42
2023-01-29T18:40:17.322Z,26.98
2023-01-29T18:42:46.081Z,25.58
2023-01-29T18:45:15.732Z,23.88
2023-01-29T18:47:44.296Z,21.77
2023-01-29T18:50:14.192Z,24.67
2023-01-29T18:52:42.509Z,21.77
2023-01-29T18:55:11.049Z,23.58
2023-01-29T18:58:32.716Z,21.92
2023-01-29T19:00:28.582Z,21.98
2023-01-29T19:02:56.831Z,21.92
2023-01-29T19:05:26.447Z,24.90
2023-01-29T19:07:55.174Z,27.85
2023-01-29T19:10:23.511Z,21.30
2023-01-29T19:12:51.724Z,23.45
2023-01-29T19:15:22.051Z,24.63
2023-01-29T19:17:50.594Z,24.15
2023-01-29T19:20:19.173Z,23.67
2023-01-29T19:22:49.104Z,22.05
2023-01-29T19:25:19.697Z,22.88
2023-01-29T19:27:48.031Z,24.55
2023-01-29T19:30:16.685Z,22.70
2023-01-29T19:32:44.916Z,29.63
2023-01-29T19:35:13.230Z,28.40
2023-01-29T19:37:41.553Z,21.70
2023-01-29T19:40:12.370Z,25.52
2023-01-29T19:42:41.019Z,21.75
2023-01-29T19:45:10.166Z,24.52
2023-01-29T19:47:40.295Z,23.17
2023-01-29T19:50:09.262Z,23.77
2023-01-29T19:52:52.800Z,22.42
2023-01-29T19:55:22.586Z,23.73
2023-01-29T19:57:53.910Z,24.95
2023-01-29T20:00:22.847Z,22.75
2023-01-29T20:02:51.367Z,23.70
2023-01-29T20:05:20.402Z,23.25
2023-01-29T20:07:49.975Z,24.90
2023-01-29T20:10:18.977Z,23.63
2023-01-29T20:12:49.085Z,23.00
2023-01-29T20:15:17.508Z,24.15
2023-01-29T20:17:46.237Z,20.30
2023-01-29T20:20:14.871Z,24.23
2023-01-29T20:22:43.508Z,24.05
2023-01-29T20:25:13.621Z,22.10
2023-01-29T20:27:42.375Z,23.63
2023-01-29T20:30:13.972Z,24.95
2023-01-29T20:32:42.265Z,24.88
2023-01-29T20:35:11.152Z,22.50
2023-01-29T20:37:39.521Z,20.42
2023-01-29T20:40:08.818Z,23.35
2023-01-29T20:42:37.204Z,22.50
2023-01-29T20:45:06.319Z,20.03
2023-01-29T20:47:36.008Z,19.90
2023-01-29T20:50:08.594Z,21.35
2023-01-29T20:52:37.795Z,25.37
2023-01-29T20:55:07.882Z,21.60
2023-01-29T20:57:36.336Z,22.48
2023-01-29T21:00:04.779Z,21.23
2023-01-29T21:02:33.181Z,19.38
2023-01-29T21:05:03.020Z,21.58
2023-01-29T21:07:31.284Z,18.63
2023-01-29T21:09:59.634Z,17.70
2023-01-29T21:12:28.039Z,19.70
2023-01-29T21:14:56.540Z,19.92
2023-01-29T21:17:26.203Z,17.90
2023-01-29T21:19:56.308Z,17.17
2023-01-29T21:22:25.933Z,19.25
2023-01-29T21:24:54.243Z,18.17
2023-01-29T21:27:22.443Z,20.63
2023-01-29T21:29:50.639Z,20.58
2023-01-29T21:32:19.099Z,18.55
2023-01-29T21:34:47.284Z,19.53
2023-01-29T21:37:15.487Z,19.03
2023-01-29T21:39:45.869Z,20.33
2023-01-29T21:42:31.503Z,17.65
2023-01-29T21:44:59.761Z,21.23
2023-01-29T21:47:27.945Z,19.33
2023-01-29T21:49:56.185Z,21.88
2023-01-29T21:52:24.410Z,23.88
2023-01-29T21:54:53.994Z,21.55
2023-01-29T21:57:26.652Z,22.02
2023-01-29T21:59:55.343Z,19.77
2023-01-29T22:02:26.313Z,19.80
2023-01-29T22:05:08.689Z,23.42
2023-01-29T22:07:45.625Z,22.30
2023-01-29T22:10:16.208Z,19.50
2023-01-29T22:12:44.954Z,24.63
2023-01-29T22:15:14.294Z,21.33
2023-01-29T22:17:42.941Z,24.48
2023-01-29T22:20:13.386Z,19.83
2023-01-29T22:22:41.652Z,22.67
2023-01-29T22:25:11.055Z,22.67
2023-01-29T22:27:40.642Z,25.00
2023-01-29T22:30:10.362Z,21.65
2023-01-29T22:32:38.650Z,25.05
2023-01-29T22:35:08.120Z,23.70
2023-01-29T22:37:39.426Z,23.85
2023-01-29T22:40:09.011Z,22.00
2023-01-29T22:42:37.433Z,28.08
2023-01-29T22:45:08.723Z,24.70
2023-01-29T22:47:36.971Z,25.00
2023-01-29T22:50:06.193Z,27.17
2023-01-29T22:52:38.551Z,27.85
2023-01-29T22:55:09.139Z,22.05
2023-01-29T22:57:37.629Z,22.65
2023-01-29T23:00:10.891Z,21.08
2023-01-29T23:02:39.455Z,25.38
2023-01-29T23:05:08.727Z,24.23
2023-01-29T23:07:36.932Z,26.65
2023-01-29T23:10:06.155Z,23.73
2023-01-29T23:12:34.725Z,23.42
2023-01-29T23:15:02.981Z,28.75
2023-01-29T23:17:32.622Z,26.20
2023-01-29T23:20:00.936Z,24.08
2023-01-29T23:22:29.324Z,27.10
2023-01-29T23:24:57.466Z,24.35
2023-01-29T23:27:27.490Z,24.10
2023-01-29T23:29:55.728Z,27.85
2023-01-29T23:32:24.108Z,30.65
2023-01-29T23:34:53.698Z,26.88
2023-01-29T23:37:21.949Z,24.52
2023-01-29T23:39:51.053Z,26.33
2023-01-29T23:42:19.889Z,26.50
2023-01-29T23:44:48.243Z,28.70
2023-01-29T23:47:16.510Z,24.33
2023-01-29T23:49:44.673Z,27.02
2023-01-29T23:52:14.241Z,26.33
2023-01-29T23:54:45.299Z,29.50
2023-01-29T23:57:13.456Z,25.03
2023-01-29T23:59:41.786Z,25.27
